sensor_id;sensor_type;location;lat;lon;timestamp;temperature;humidity
29571;DHT22;16814;52.118;11.436;2022-10-29T00:01:55;17.00;99.90
29571;DHT22;16814;52.118;11.436;2022-10-29T00:04:20;17.00;99.90
29571;DHT22;16814;52.118;11.436;2022-10-29T00:06:49;16.90;99.90
29571;DHT22;16814;52.118;11.436;2022-10-29T00:09:14;16.90;99.90
29571;DHT22;16814;52.118;11.436;2022-10-29T00:11:40;16.90;99.90
29571;DHT22;16814;52.118;11.436;2022-10-29T00:14:05;16.90;99.90
29571;DHT22;16814;52.118;11.436;2022-10-29T00:16:37;17.00;99.90
29571;DHT22;16814;52.118;11.436;2022-10-29T00:19:03;17.00;99.90
29571;DHT22;16814;52.118;11.436;2022-10-29T00:21:29;16.80;99.90
29571;DHT22;16814;52.118;11.436;2022-10-29T00:23:56;16.90;99.90
29571;DHT22;16814;52.118;11.436;2022-10-29T00:26:22;16.80;99.90
29571;DHT22;16814;52.118;11.436;2022-10-29T00:28:51;16.80;99.90
29571;DHT22;16814;52.118;11.436;2022-10-29T00:31:17;16.70;99.90
29571;DHT22;16814;52.118;11.436;2022-10-29T00:33:44;16.70;99.90
29571;DHT22;16814;52.118;11.436;2022-10-29T00:36:15;16.60;99.90
29571;DHT22;16814;52.118;11.436;2022-10-29T00:38:41;16.60;99.90
29571;DHT22;16814;52.118;11.436;2022-10-29T00:41:09;16.20;99.90
29571;DHT22;16814;52.118;11.436;2022-10-29T00:43:36;16.40;99.90
29571;DHT22;16814;52.118;11.436;2022-10-29T00:46:17;16.40;99.90
29571;DHT22;16814;52.118;11.436;2022-10-29T00:48:49;16.40;99.90
29571;DHT22;16814;52.118;11.436;2022-10-29T00:51:16;16.50;99.90
29571;DHT22;16814;52.118;11.436;2022-10-29T00:53:45;16.40;99.90
29571;DHT22;16814;52.118;11.436;2022-10-29T00:56:12;16.30;99.90
29571;DHT22;16814;52.118;11.436;2022-10-29T00:58:39;16.20;99.90
29571;DHT22;16814;52.118;11.436;2022-10-29T01:01:05;16.20;99.90
29571;DHT22;16814;52.118;11.436;2022-10-29T01:03:30;16.20;99.90
29571;DHT22;16814;52.118;11.436;2022-10-29T01:05:56;16.20;99.90
29571;DHT22;16814;52.118;11.436;2022-10-29T01:08:22;16.20;99.90
29571;DHT22;16814;52.118;11.436;2022-10-29T01:14:27;16.30;99.90
29571;DHT22;16814;52.118;11.436;2022-10-29T01:20:18;16.20;99.90
29571;DHT22;16814;52.118;11.436;2022-10-29T01:23:23;16.20;99.90
29571;DHT22;16814;52.118;11.436;2022-10-29T01:29:04;16.00;99.90
29571;DHT22;16814;52.118;11.436;2022-10-29T01:34:33;15.80;99.90
29571;DHT22;16814;52.118;11.436;2022-10-29T01:37:17;15.70;99.90
29571;DHT22;16814;52.118;11.436;2022-10-29T01:39:57;15.70;99.90
29571;DHT22;16814;52.118;11.436;2022-10-29T01:42:37;15.40;99.90
29571;DHT22;16814;52.118;11.436;2022-10-29T01:45:15;15.20;99.90
29571;DHT22;16814;52.118;11.436;2022-10-29T01:47:49;15.00;99.90
29571;DHT22;16814;52.118;11.436;2022-10-29T01:50:18;14.90;99.90
29571;DHT22;16814;52.118;11.436;2022-10-29T01:52:46;14.90;99.90
29571;DHT22;16814;52.118;11.436;2022-10-29T01:55:21;14.30;99.90
29571;DHT22;16814;52.118;11.436;2022-10-29T01:57:47;14.80;99.90
29571;DHT22;16814;52.118;11.436;2022-10-29T02:00:18;14.90;99.90
29571;DHT22;16814;52.118;11.436;2022-10-29T02:02:59;15.00;99.90
29571;DHT22;16814;52.118;11.436;2022-10-29T02:05:37;15.10;99.90
29571;DHT22;16814;52.118;11.436;2022-10-29T02:08:09;15.10;99.90
29571;DHT22;16814;52.118;11.436;2022-10-29T02:11:06;15.00;99.90
29571;DHT22;16814;52.118;11.436;2022-10-29T02:13:39;14.90;99.90
29571;DHT22;16814;52.118;11.436;2022-10-29T02:16:07;14.90;99.90
29571;DHT22;16814;52.118;11.436;2022-10-29T02:18:44;14.90;99.90
29571;DHT22;16814;52.118;11.436;2022-10-29T02:21:13;15.00;99.90
29571;DHT22;16814;52.118;11.436;2022-10-29T02:23:39;15.00;99.90
29571;DHT22;16814;52.118;11.436;2022-10-29T02:26:04;14.90;99.90
29571;DHT22;16814;52.118;11.436;2022-10-29T02:28:30;14.90;99.90
29571;DHT22;16814;52.118;11.436;2022-10-29T02:30:55;14.70;99.90
29571;DHT22;16814;52.118;11.436;2022-10-29T02:33:21;14.70;99.90
29571;DHT22;16814;52.118;11.436;2022-10-29T02:35:46;14.70;99.90
29571;DHT22;16814;52.118;11.436;2022-10-29T02:38:12;14.70;99.90
29571;DHT22;16814;52.118;11.436;2022-10-29T02:40:37;14.70;99.90
29571;DHT22;16814;52.118;11.436;2022-10-29T02:43:03;14.80;99.90
29571;DHT22;16814;52.118;11.436;2022-10-29T02:45:28;14.90;99.90
29571;DHT22;16814;52.118;11.436;2022-10-29T02:47:54;14.90;99.90
29571;DHT22;16814;52.118;11.436;2022-10-29T02:50:19;14.90;99.90
29571;DHT22;16814;52.118;11.436;2022-10-29T02:52:45;14.80;99.90
29571;DHT22;16814;52.118;11.436;2022-10-29T02:55:10;14.90;99.90
29571;DHT22;16814;52.118;11.436;2022-10-29T02:57:36;15.00;99.90
29571;DHT22;16814;52.118;11.436;2022-10-29T03:00:01;15.00;99.90
29571;DHT22;16814;52.118;11.436;2022-10-29T03:02:27;15.10;99.90
29571;DHT22;16814;52.118;11.436;2022-10-29T03:04:52;15.10;99.90
29571;DHT22;16814;52.118;11.436;2022-10-29T03:07:18;15.00;99.90
29571;DHT22;16814;52.118;11.436;2022-10-29T03:09:43;15.00;99.90
29571;DHT22;16814;52.118;11.436;2022-10-29T03:12:09;14.90;99.90
29571;DHT22;16814;52.118;11.436;2022-10-29T03:14:34;15.00;99.90
29571;DHT22;16814;52.118;11.436;2022-10-29T03:17:00;15.10;99.90
29571;DHT22;16814;52.118;11.436;2022-10-29T03:19:25;15.00;99.90
29571;DHT22;16814;52.118;11.436;2022-10-29T03:21:51;15.00;99.90
29571;DHT22;16814;52.118;11.436;2022-10-29T03:24:16;15.00;99.90
29571;DHT22;16814;52.118;11.436;2022-10-29T03:26:41;15.10;99.90
29571;DHT22;16814;52.118;11.436;2022-10-29T03:29:07;15.10;99.90
29571;DHT22;16814;52.118;11.436;2022-10-29T03:31:32;15.10;99.90
29571;DHT22;16814;52.118;11.436;2022-10-29T03:33:58;15.00;99.90
29571;DHT22;16814;52.118;11.436;2022-10-29T03:36:23;15.10;99.90
29571;DHT22;16814;52.118;11.436;2022-10-29T03:38:49;15.10;99.90
29571;DHT22;16814;52.118;11.436;2022-10-29T03:41:14;15.20;99.90
29571;DHT22;16814;52.118;11.436;2022-10-29T03:43:40;15.20;99.90
29571;DHT22;16814;52.118;11.436;2022-10-29T03:46:06;15.20;99.90
29571;DHT22;16814;52.118;11.436;2022-10-29T03:48:31;15.00;99.90
29571;DHT22;16814;52.118;11.436;2022-10-29T03:51:00;15.10;99.90
29571;DHT22;16814;52.118;11.436;2022-10-29T03:53:26;15.10;99.90
29571;DHT22;16814;52.118;11.436;2022-10-29T03:55:52;15.10;99.90
29571;DHT22;16814;52.118;11.436;2022-10-29T03:58:18;15.20;99.90
29571;DHT22;16814;52.118;11.436;2022-10-29T04:00:55;15.20;99.90
29571;DHT22;16814;52.118;11.436;2022-10-29T04:03:21;15.20;99.90
29571;DHT22;16814;52.118;11.436;2022-10-29T04:05:46;15.10;99.90
29571;DHT22;16814;52.118;11.436;2022-10-29T04:08:12;15.10;99.90
29571;DHT22;16814;52.118;11.436;2022-10-29T04:10:37;15.10;99.90
29571;DHT22;16814;52.118;11.436;2022-10-29T04:13:07;15.20;99.90
29571;DHT22;16814;52.118;11.436;2022-10-29T04:15:32;15.20;99.90
29571;DHT22;16814;52.118;11.436;2022-10-29T04:17:58;15.20;99.90
29571;DHT22;16814;52.118;11.436;2022-10-29T04:20:23;15.20;99.90
29571;DHT22;16814;52.118;11.436;2022-10-29T04:22:52;15.10;99.90
29571;DHT22;16814;52.118;11.436;2022-10-29T04:25:18;15.10;99.90
29571;DHT22;16814;52.118;11.436;2022-10-29T04:27:43;15.30;99.90
29571;DHT22;16814;52.118;11.436;2022-10-29T04:30:09;15.00;99.90
29571;DHT22;16814;52.118;11.436;2022-10-29T04:32:34;15.10;99.90
29571;DHT22;16814;52.118;11.436;2022-10-29T04:35:00;15.00;99.90
29571;DHT22;16814;52.118;11.436;2022-10-29T04:37:27;14.90;99.90
29571;DHT22;16814;52.118;11.436;2022-10-29T04:39:53;14.90;99.90
29571;DHT22;16814;52.118;11.436;2022-10-29T04:42:19;14.90;99.90
29571;DHT22;16814;52.118;11.436;2022-10-29T04:44:44;14.80;99.90
29571;DHT22;16814;52.118;11.436;2022-10-29T04:47:10;14.60;99.90
29571;DHT22;16814;52.118;11.436;2022-10-29T04:49:35;14.70;99.90
29571;DHT22;16814;52.118;11.436;2022-10-29T04:52:01;14.60;99.90
29571;DHT22;16814;52.118;11.436;2022-10-29T04:54:26;14.60;99.90
29571;DHT22;16814;52.118;11.436;2022-10-29T04:56:52;14.70;99.90
29571;DHT22;16814;52.118;11.436;2022-10-29T04:59:17;14.70;99.90
29571;DHT22;16814;52.118;11.436;2022-10-29T05:01:43;14.70;99.90
29571;DHT22;16814;52.118;11.436;2022-10-29T05:04:08;14.80;99.90
29571;DHT22;16814;52.118;11.436;2022-10-29T05:06:34;14.90;99.90
29571;DHT22;16814;52.118;11.436;2022-10-29T05:08:59;14.90;99.90
29571;DHT22;16814;52.118;11.436;2022-10-29T05:11:25;14.80;99.90
29571;DHT22;16814;52.118;11.436;2022-10-29T05:13:50;14.70;99.90
29571;DHT22;16814;52.118;11.436;2022-10-29T05:16:16;14.60;99.90
29571;DHT22;16814;52.118;11.436;2022-10-29T05:18:41;14.60;99.90
29571;DHT22;16814;52.118;11.436;2022-10-29T05:21:07;14.70;99.90
29571;DHT22;16814;52.118;11.436;2022-10-29T05:23:32;14.80;99.90
29571;DHT22;16814;52.118;11.436;2022-10-29T05:25:58;14.70;99.90
29571;DHT22;16814;52.118;11.436;2022-10-29T05:28:23;14.70;99.90
29571;DHT22;16814;52.118;11.436;2022-10-29T05:30:51;14.80;99.90
29571;DHT22;16814;52.118;11.436;2022-10-29T05:33:19;14.70;99.90
29571;DHT22;16814;52.118;11.436;2022-10-29T05:35:45;14.70;99.90
29571;DHT22;16814;52.118;11.436;2022-10-29T05:38:13;14.70;99.90
29571;DHT22;16814;52.118;11.436;2022-10-29T05:40:39;14.70;99.90
29571;DHT22;16814;52.118;11.436;2022-10-29T05:43:05;14.60;99.90
29571;DHT22;16814;52.118;11.436;2022-10-29T05:45:31;14.60;99.90
29571;DHT22;16814;52.118;11.436;2022-10-29T05:47:57;14.50;99.90
29571;DHT22;16814;52.118;11.436;2022-10-29T05:50:23;14.50;99.90
29571;DHT22;16814;52.118;11.436;2022-10-29T05:52:56;14.40;99.90
29571;DHT22;16814;52.118;11.436;2022-10-29T05:55:25;14.50;99.90
29571;DHT22;16814;52.118;11.436;2022-10-29T05:57:57;14.50;99.90
29571;DHT22;16814;52.118;11.436;2022-10-29T06:00:24;14.50;99.90
29571;DHT22;16814;52.118;11.436;2022-10-29T06:02:50;14.50;99.90
29571;DHT22;16814;52.118;11.436;2022-10-29T06:05:15;14.50;99.90
29571;DHT22;16814;52.118;11.436;2022-10-29T06:07:41;14.50;99.90
29571;DHT22;16814;52.118;11.436;2022-10-29T06:10:07;14.50;99.90
29571;DHT22;16814;52.118;11.436;2022-10-29T06:12:32;14.50;99.90
29571;DHT22;16814;52.118;11.436;2022-10-29T06:14:58;14.50;99.90
29571;DHT22;16814;52.118;11.436;2022-10-29T06:17:24;14.60;99.90
29571;DHT22;16814;52.118;11.436;2022-10-29T06:19:50;14.60;99.90
29571;DHT22;16814;52.118;11.436;2022-10-29T06:22:15;14.60;99.90
29571;DHT22;16814;52.118;11.436;2022-10-29T06:24:41;14.60;99.90
29571;DHT22;16814;52.118;11.436;2022-10-29T06:27:06;14.50;99.90
29571;DHT22;16814;52.118;11.436;2022-10-29T06:29:32;14.50;99.90
29571;DHT22;16814;52.118;11.436;2022-10-29T06:31:57;14.60;99.90
29571;DHT22;16814;52.118;11.436;2022-10-29T06:34:23;14.60;99.90
29571;DHT22;16814;52.118;11.436;2022-10-29T06:36:48;14.60;99.90
29571;DHT22;16814;52.118;11.436;2022-10-29T06:39:14;14.60;99.90
29571;DHT22;16814;52.118;11.436;2022-10-29T06:41:39;14.50;99.90
29571;DHT22;16814;52.118;11.436;2022-10-29T06:44:05;14.40;99.90
29571;DHT22;16814;52.118;11.436;2022-10-29T06:46:30;14.50;99.90
29571;DHT22;16814;52.118;11.436;2022-10-29T06:48:58;14.50;99.90
29571;DHT22;16814;52.118;11.436;2022-10-29T06:51:25;14.50;99.90
29571;DHT22;16814;52.118;11.436;2022-10-29T06:53:50;14.50;99.90
29571;DHT22;16814;52.118;11.436;2022-10-29T06:56:16;14.50;99.90
29571;DHT22;16814;52.118;11.436;2022-10-29T06:58:42;14.70;99.90
29571;DHT22;16814;52.118;11.436;2022-10-29T07:01:07;14.80;99.90
29571;DHT22;16814;52.118;11.436;2022-10-29T07:03:33;14.80;99.90
29571;DHT22;16814;52.118;11.436;2022-10-29T07:05:58;14.80;99.90
29571;DHT22;16814;52.118;11.436;2022-10-29T07:08:24;14.90;99.90
29571;DHT22;16814;52.118;11.436;2022-10-29T07:10:51;15.00;99.90
29571;DHT22;16814;52.118;11.436;2022-10-29T07:13:17;14.90;99.90
29571;DHT22;16814;52.118;11.436;2022-10-29T07:15:42;14.90;99.90
29571;DHT22;16814;52.118;11.436;2022-10-29T07:18:09;15.00;99.90
29571;DHT22;16814;52.118;11.436;2022-10-29T07:20:38;15.00;99.90
29571;DHT22;16814;52.118;11.436;2022-10-29T07:23:04;15.10;99.90
29571;DHT22;16814;52.118;11.436;2022-10-29T07:25:30;15.10;99.90
29571;DHT22;16814;52.118;11.436;2022-10-29T07:28:22;15.10;99.90
29571;DHT22;16814;52.118;11.436;2022-10-29T07:30:50;15.10;99.90
29571;DHT22;16814;52.118;11.436;2022-10-29T07:33:16;15.10;99.90
29571;DHT22;16814;52.118;11.436;2022-10-29T07:35:42;15.10;99.90
29571;DHT22;16814;52.118;11.436;2022-10-29T07:38:10;15.10;99.90
29571;DHT22;16814;52.118;11.436;2022-10-29T07:40:37;15.00;99.90
29571;DHT22;16814;52.118;11.436;2022-10-29T07:43:02;15.10;99.90
29571;DHT22;16814;52.118;11.436;2022-10-29T07:45:28;15.20;99.90
29571;DHT22;16814;52.118;11.436;2022-10-29T07:47:58;15.20;99.90
29571;DHT22;16814;52.118;11.436;2022-10-29T07:50:24;15.20;99.90
29571;DHT22;16814;52.118;11.436;2022-10-29T07:52:50;15.30;99.90
29571;DHT22;16814;52.118;11.436;2022-10-29T07:55:15;15.40;99.90
29571;DHT22;16814;52.118;11.436;2022-10-29T07:57:41;15.40;99.90
29571;DHT22;16814;52.118;11.436;2022-10-29T08:00:07;15.30;99.90
29571;DHT22;16814;52.118;11.436;2022-10-29T08:02:32;15.30;99.90
29571;DHT22;16814;52.118;11.436;2022-10-29T08:04:58;15.20;99.90
29571;DHT22;16814;52.118;11.436;2022-10-29T08:07:23;15.30;99.90
29571;DHT22;16814;52.118;11.436;2022-10-29T08:09:49;15.30;99.90
29571;DHT22;16814;52.118;11.436;2022-10-29T08:12:14;15.30;99.90
29571;DHT22;16814;52.118;11.436;2022-10-29T08:14:40;15.30;99.90
29571;DHT22;16814;52.118;11.436;2022-10-29T08:17:05;15.30;99.90
29571;DHT22;16814;52.118;11.436;2022-10-29T08:19:31;15.30;99.90
29571;DHT22;16814;52.118;11.436;2022-10-29T08:21:56;15.40;99.90
29571;DHT22;16814;52.118;11.436;2022-10-29T08:24:22;15.40;99.90
29571;DHT22;16814;52.118;11.436;2022-10-29T08:26:49;15.50;99.90
29571;DHT22;16814;52.118;11.436;2022-10-29T08:29:15;15.50;99.90
29571;DHT22;16814;52.118;11.436;2022-10-29T08:31:41;15.60;99.90
29571;DHT22;16814;52.118;11.436;2022-10-29T08:34:06;15.70;99.90
29571;DHT22;16814;52.118;11.436;2022-10-29T08:36:32;15.80;99.90
29571;DHT22;16814;52.118;11.436;2022-10-29T08:38:57;15.80;99.90
29571;DHT22;16814;52.118;11.436;2022-10-29T08:44:19;16.00;99.90
29571;DHT22;16814;52.118;11.436;2022-10-29T08:47:13;16.00;99.90
29571;DHT22;16814;52.118;11.436;2022-10-29T08:52:48;16.10;99.90
29571;DHT22;16814;52.118;11.436;2022-10-29T08:55:18;16.10;99.90
29571;DHT22;16814;52.118;11.436;2022-10-29T08:57:54;16.20;99.90
29571;DHT22;16814;52.118;11.436;2022-10-29T09:00:22;16.30;99.90
29571;DHT22;16814;52.118;11.436;2022-10-29T09:02:54;16.50;99.90
29571;DHT22;16814;52.118;11.436;2022-10-29T09:05:25;16.80;99.90
29571;DHT22;16814;52.118;11.436;2022-10-29T09:10:54;17.40;99.90
29571;DHT22;16814;52.118;11.436;2022-10-29T09:16:19;17.90;99.90
29571;DHT22;16814;52.118;11.436;2022-10-29T09:18:49;18.20;99.90
29571;DHT22;16814;52.118;11.436;2022-10-29T09:21:30;18.20;99.90
29571;DHT22;16814;52.118;11.436;2022-10-29T09:27:08;18.60;99.90
29571;DHT22;16814;52.118;11.436;2022-10-29T09:30:10;18.70;99.90
29571;DHT22;16814;52.118;11.436;2022-10-29T09:32:40;18.70;99.90
29571;DHT22;16814;52.118;11.436;2022-10-29T09:35:39;18.90;99.90
29571;DHT22;16814;52.118;11.436;2022-10-29T09:38:21;19.20;99.90
29571;DHT22;16814;52.118;11.436;2022-10-29T09:40:48;19.40;99.90
29571;DHT22;16814;52.118;11.436;2022-10-29T09:43:45;19.50;99.90
29571;DHT22;16814;52.118;11.436;2022-10-29T09:51:57;19.90;99.90
29571;DHT22;16814;52.118;11.436;2022-10-29T09:54:26;20.00;99.90
29571;DHT22;16814;52.118;11.436;2022-10-29T09:56:53;20.10;99.90
29571;DHT22;16814;52.118;11.436;2022-10-29T09:59:39;19.90;99.90
29571;DHT22;16814;52.118;11.436;2022-10-29T10:04:49;19.90;99.90
29571;DHT22;16814;52.118;11.436;2022-10-29T10:07:17;19.70;99.90
29571;DHT22;16814;52.118;11.436;2022-10-29T10:09:56;19.70;99.90
29571;DHT22;16814;52.118;11.436;2022-10-29T10:12:42;19.60;99.90
29571;DHT22;16814;52.118;11.436;2022-10-29T10:20:59;20.00;99.90
29571;DHT22;16814;52.118;11.436;2022-10-29T10:23:27;20.00;99.90
29571;DHT22;16814;52.118;11.436;2022-10-29T10:25:55;19.80;99.90
29571;DHT22;16814;52.118;11.436;2022-10-29T10:28:25;19.90;99.90
29571;DHT22;16814;52.118;11.436;2022-10-29T10:33:29;19.70;99.90
29571;DHT22;16814;52.118;11.436;2022-10-29T10:36:03;19.60;99.90
29571;DHT22;16814;52.118;11.436;2022-10-29T10:38:41;19.50;99.90
29571;DHT22;16814;52.118;11.436;2022-10-29T10:41:08;19.50;99.90
29571;DHT22;16814;52.118;11.436;2022-10-29T10:43:35;19.50;99.90
29571;DHT22;16814;52.118;11.436;2022-10-29T10:46:04;19.40;99.90
29571;DHT22;16814;52.118;11.436;2022-10-29T10:48:31;19.40;99.90
29571;DHT22;16814;52.118;11.436;2022-10-29T10:51:25;19.30;99.90
29571;DHT22;16814;52.118;11.436;2022-10-29T10:53:52;19.40;99.90
29571;DHT22;16814;52.118;11.436;2022-10-29T10:56:20;19.50;99.90
29571;DHT22;16814;52.118;11.436;2022-10-29T10:59:05;19.50;99.90
29571;DHT22;16814;52.118;11.436;2022-10-29T11:01:43;19.60;99.90
29571;DHT22;16814;52.118;11.436;2022-10-29T11:06:49;19.60;99.90
29571;DHT22;16814;52.118;11.436;2022-10-29T11:09:36;19.70;99.90
29571;DHT22;16814;52.118;11.436;2022-10-29T11:14:39;19.60;99.90
29571;DHT22;16814;52.118;11.436;2022-10-29T11:17:26;19.50;99.90
29571;DHT22;16814;52.118;11.436;2022-10-29T11:19:56;19.50;99.90
29571;DHT22;16814;52.118;11.436;2022-10-29T11:22:32;19.40;99.90
29571;DHT22;16814;52.118;11.436;2022-10-29T11:25:12;19.50;99.90
29571;DHT22;16814;52.118;11.436;2022-10-29T11:28:36;19.30;99.90
29571;DHT22;16814;52.118;11.436;2022-10-29T11:30:43;19.20;99.90
29571;DHT22;16814;52.118;11.436;2022-10-29T11:33:47;19.30;99.90
29571;DHT22;16814;52.118;11.436;2022-10-29T11:36:26;19.10;99.90
29571;DHT22;16814;52.118;11.436;2022-10-29T11:39:37;19.00;99.90
29571;DHT22;16814;52.118;11.436;2022-10-29T11:42:00;19.00;99.90
29571;DHT22;16814;52.118;11.436;2022-10-29T11:44:26;19.00;99.90
29571;DHT22;16814;52.118;11.436;2022-10-29T11:47:18;19.10;99.90
29571;DHT22;16814;52.118;11.436;2022-10-29T11:52:46;18.90;99.90
29571;DHT22;16814;52.118;11.436;2022-10-29T11:57:53;18.90;99.90
29571;DHT22;16814;52.118;11.436;2022-10-29T12:00:21;18.80;99.90
29571;DHT22;16814;52.118;11.436;2022-10-29T12:03:08;18.70;99.90
29571;DHT22;16814;52.118;11.436;2022-10-29T12:11:51;19.00;99.90
29571;DHT22;16814;52.118;11.436;2022-10-29T12:14:03;19.20;99.90
29571;DHT22;16814;52.118;11.436;2022-10-29T12:22:19;19.60;99.90
29571;DHT22;16814;52.118;11.436;2022-10-29T12:30:22;19.80;99.90
29571;DHT22;16814;52.118;11.436;2022-10-29T12:32:59;19.90;99.90
29571;DHT22;16814;52.118;11.436;2022-10-29T12:35:56;19.80;99.90
29571;DHT22;16814;52.118;11.436;2022-10-29T12:38:32;19.70;99.90
29571;DHT22;16814;52.118;11.436;2022-10-29T12:41:36;19.90;99.90
29571;DHT22;16814;52.118;11.436;2022-10-29T12:44:11;19.90;99.90
29571;DHT22;16814;52.118;11.436;2022-10-29T12:47:13;19.90;99.90
29571;DHT22;16814;52.118;11.436;2022-10-29T12:49:49;19.90;99.90
29571;DHT22;16814;52.118;11.436;2022-10-29T12:52:54;20.20;99.90
29571;DHT22;16814;52.118;11.436;2022-10-29T12:55:18;20.20;99.90
29571;DHT22;16814;52.118;11.436;2022-10-29T12:57:45;20.30;99.90
29571;DHT22;16814;52.118;11.436;2022-10-29T13:02:49;20.30;99.90
29571;DHT22;16814;52.118;11.436;2022-10-29T13:05:40;20.20;99.90
29571;DHT22;16814;52.118;11.436;2022-10-29T13:08:09;20.20;99.90
29571;DHT22;16814;52.118;11.436;2022-10-29T13:10:47;20.10;99.90
29571;DHT22;16814;52.118;11.436;2022-10-29T13:13:47;20.20;99.90
29571;DHT22;16814;52.118;11.436;2022-10-29T13:16:18;20.20;99.90
29571;DHT22;16814;52.118;11.436;2022-10-29T13:24:22;20.10;99.90
29571;DHT22;16814;52.118;11.436;2022-10-29T13:26:59;20.30;99.90
29571;DHT22;16814;52.118;11.436;2022-10-29T13:29:44;20.20;99.90
29571;DHT22;16814;52.118;11.436;2022-10-29T13:32:33;20.10;99.90
29571;DHT22;16814;52.118;11.436;2022-10-29T13:35:01;20.20;99.90
29571;DHT22;16814;52.118;11.436;2022-10-29T13:37:50;19.90;99.90
29571;DHT22;16814;52.118;11.436;2022-10-29T13:43:15;19.80;99.90
29571;DHT22;16814;52.118;11.436;2022-10-29T13:45:45;19.80;99.90
29571;DHT22;16814;52.118;11.436;2022-10-29T13:48:28;19.90;99.90
29571;DHT22;16814;52.118;11.436;2022-10-29T13:50:57;20.00;99.90
29571;DHT22;16814;52.118;11.436;2022-10-29T13:53:33;20.10;99.90
29571;DHT22;16814;52.118;11.436;2022-10-29T13:56:00;19.90;99.90
29571;DHT22;16814;52.118;11.436;2022-10-29T13:58:34;20.10;99.90
29571;DHT22;16814;52.118;11.436;2022-10-29T14:01:05;19.90;99.90
29571;DHT22;16814;52.118;11.436;2022-10-29T14:04:00;19.90;99.90
29571;DHT22;16814;52.118;11.436;2022-10-29T14:06:36;19.80;99.90
29571;DHT22;16814;52.118;11.436;2022-10-29T14:09:22;19.90;99.90
29571;DHT22;16814;52.118;11.436;2022-10-29T14:12:02;19.90;99.90
29571;DHT22;16814;52.118;11.436;2022-10-29T14:14:49;20.00;99.90
29571;DHT22;16814;52.118;11.436;2022-10-29T14:17:18;19.80;99.90
29571;DHT22;16814;52.118;11.436;2022-10-29T14:19:49;19.80;99.90
29571;DHT22;16814;52.118;11.436;2022-10-29T14:22:20;19.70;99.90
29571;DHT22;16814;52.118;11.436;2022-10-29T14:24:46;19.60;99.90
29571;DHT22;16814;52.118;11.436;2022-10-29T14:27:11;19.50;99.90
29571;DHT22;16814;52.118;11.436;2022-10-29T14:29:39;19.50;99.90
29571;DHT22;16814;52.118;11.436;2022-10-29T14:32:13;19.20;99.90
29571;DHT22;16814;52.118;11.436;2022-10-29T14:34:40;19.10;99.90
29571;DHT22;16814;52.118;11.436;2022-10-29T14:37:27;18.80;99.90
29571;DHT22;16814;52.118;11.436;2022-10-29T14:39:57;18.90;99.90
29571;DHT22;16814;52.118;11.436;2022-10-29T14:42:31;18.70;99.90
29571;DHT22;16814;52.118;11.436;2022-10-29T14:45:00;18.80;99.90
29571;DHT22;16814;52.118;11.436;2022-10-29T14:47:35;18.70;99.90
29571;DHT22;16814;52.118;11.436;2022-10-29T14:50:04;18.80;99.90
29571;DHT22;16814;52.118;11.436;2022-10-29T14:52:36;18.80;99.90
29571;DHT22;16814;52.118;11.436;2022-10-29T14:55:06;18.70;99.90
29571;DHT22;16814;52.118;11.436;2022-10-29T14:57:34;18.70;99.90
29571;DHT22;16814;52.118;11.436;2022-10-29T15:00:05;18.60;99.90
29571;DHT22;16814;52.118;11.436;2022-10-29T15:02:35;18.50;99.90
29571;DHT22;16814;52.118;11.436;2022-10-29T15:05:03;18.40;99.90
29571;DHT22;16814;52.118;11.436;2022-10-29T15:07:34;18.30;99.90
29571;DHT22;16814;52.118;11.436;2022-10-29T15:12:40;18.30;99.90
29571;DHT22;16814;52.118;11.436;2022-10-29T15:17:54;18.20;99.90
29571;DHT22;16814;52.118;11.436;2022-10-29T15:20:25;18.20;99.90
29571;DHT22;16814;52.118;11.436;2022-10-29T15:22:53;18.10;99.90
29571;DHT22;16814;52.118;11.436;2022-10-29T15:25:28;17.90;99.90
29571;DHT22;16814;52.118;11.436;2022-10-29T15:27:55;17.70;99.90
29571;DHT22;16814;52.118;11.436;2022-10-29T15:30:27;17.50;99.90
29571;DHT22;16814;52.118;11.436;2022-10-29T15:32:57;17.40;99.90
29571;DHT22;16814;52.118;11.436;2022-10-29T15:35:23;17.30;99.90
29571;DHT22;16814;52.118;11.436;2022-10-29T15:37:49;17.20;99.90
29571;DHT22;16814;52.118;11.436;2022-10-29T15:40:25;17.20;99.90
29571;DHT22;16814;52.118;11.436;2022-10-29T15:42:51;17.20;99.90
29571;DHT22;16814;52.118;11.436;2022-10-29T15:45:22;17.20;99.90
29571;DHT22;16814;52.118;11.436;2022-10-29T15:47:55;17.20;99.90
29571;DHT22;16814;52.118;11.436;2022-10-29T15:50:36;17.10;99.90
29571;DHT22;16814;52.118;11.436;2022-10-29T15:53:02;17.20;99.90
29571;DHT22;16814;52.118;11.436;2022-10-29T15:55:32;17.10;99.90
29571;DHT22;16814;52.118;11.436;2022-10-29T15:58:08;17.10;99.90
29571;DHT22;16814;52.118;11.436;2022-10-29T16:00:35;17.10;99.90
29571;DHT22;16814;52.118;11.436;2022-10-29T16:03:19;16.90;99.90
29571;DHT22;16814;52.118;11.436;2022-10-29T16:05:48;17.10;99.90
29571;DHT22;16814;52.118;11.436;2022-10-29T16:08:27;17.10;99.90
29571;DHT22;16814;52.118;11.436;2022-10-29T16:10:55;17.10;99.90
29571;DHT22;16814;52.118;11.436;2022-10-29T16:13:22;17.00;99.90
29571;DHT22;16814;52.118;11.436;2022-10-29T16:15:49;17.10;99.90
29571;DHT22;16814;52.118;11.436;2022-10-29T16:18:15;17.00;99.90
29571;DHT22;16814;52.118;11.436;2022-10-29T16:20:41;17.00;99.90
29571;DHT22;16814;52.118;11.436;2022-10-29T16:23:12;17.00;99.90
29571;DHT22;16814;52.118;11.436;2022-10-29T16:25:38;17.10;99.90
29571;DHT22;16814;52.118;11.436;2022-10-29T16:28:04;17.10;99.90
29571;DHT22;16814;52.118;11.436;2022-10-29T16:30:30;17.10;99.90
29571;DHT22;16814;52.118;11.436;2022-10-29T16:32:55;17.20;99.90
29571;DHT22;16814;52.118;11.436;2022-10-29T16:35:23;17.20;99.90
29571;DHT22;16814;52.118;11.436;2022-10-29T16:37:50;17.20;99.90
29571;DHT22;16814;52.118;11.436;2022-10-29T16:40:17;17.00;99.90
29571;DHT22;16814;52.118;11.436;2022-10-29T16:42:43;16.90;99.90
29571;DHT22;16814;52.118;11.436;2022-10-29T16:45:14;16.80;99.90
29571;DHT22;16814;52.118;11.436;2022-10-29T16:47:40;16.70;99.90
29571;DHT22;16814;52.118;11.436;2022-10-29T16:50:06;16.60;99.90
29571;DHT22;16814;52.118;11.436;2022-10-29T16:52:31;16.70;99.90
29571;DHT22;16814;52.118;11.436;2022-10-29T16:54:57;16.80;99.90
29571;DHT22;16814;52.118;11.436;2022-10-29T16:57:23;16.70;99.90
29571;DHT22;16814;52.118;11.436;2022-10-29T16:59:49;16.70;99.90
29571;DHT22;16814;52.118;11.436;2022-10-29T17:02:14;16.70;99.90
29571;DHT22;16814;52.118;11.436;2022-10-29T17:04:40;16.70;99.90